| time (UTC) | temp C | wind direction | speed KPH | gust KPH | rain 1hr cm | rain 24hr cm | rain mn cm | humidity % | barometer mb |
| 20260507135059 | 9 | 25 | 9.7 | 12.9 | 0.00 | 0.00 | 0.00 | 100 | |
| 20260507134659 | 9 | 352 | 9.7 | 12.9 | 0.00 | 0.00 | 0.00 | 100 | |
| 20260507134259 | 9 | 322 | 8.0 | 9.7 | 0.00 | 0.00 | 0.00 | 100 | |
| 20260507133859 | 8 | 165 | 9.7 | 12.9 | 0.00 | 0.00 | 0.00 | 100 | |
| 20260507133459 | 8 | 21 | 8.0 | 11.3 | 0.00 | 0.00 | 0.00 | 100 | |
| 20260507133057 | 8 | 253 | 8.0 | 9.7 | 0.00 | 0.00 | 0.00 | 100 | |
| 20260507132657 | 9 | 100 | 9.7 | 11.3 | 0.00 | 0.00 | 0.00 | 100 | |
| 20260507132257 | 9 | 172 | 9.7 | 16.1 | 0.00 | 0.00 | 0.00 | 100 | |
| 20260507131855 | 8 | 154 | 12.9 | 19.3 | 0.00 | 0.00 | 0.00 | 100 | |
| 20260507131455 | 8 | 169 | 11.3 | 16.1 | 0.00 | 0.00 | 0.00 | 100 | |
| 20260507131053 | 8 | 161 | 11.3 | 12.9 | 0.00 | 0.00 | 0.00 | 100 | |
| 20260507130653 | 8 | 124 | 11.3 | 14.5 | 0.00 | 0.00 | 0.00 | 100 | |
| 20260507130253 | 8 | 246 | 11.3 | 17.7 | 0.00 | 0.00 | 0.00 | 100 | |
| 20260507125853 | 8 | 226 | 8.0 | 14.5 | 0.00 | 0.00 | 0.00 | 100 | |
| 20260507125453 | 8 | 267 | 9.7 | 16.1 | 0.00 | 0.00 | 0.00 | 100 | |
| 20260507125042 | 8 | 265 | 6.4 | 9.7 | 0.00 | 0.00 | 0.00 | 100 | |
| 20260507124642 | 8 | 253 | 8.0 | 12.9 | 0.00 | 0.00 | 0.00 | 100 | |
| 20260507124242 | 9 | 253 | 9.7 | 17.7 | 0.00 | 0.00 | 0.00 | 100 | |
| 20260507123842 | 9 | 238 | 14.5 | 25.7 | 0.00 | 0.00 | 0.00 | 100 | |
| 20260507123442 | 9 | 188 | 11.3 | 16.1 | 0.00 | 0.00 | 0.00 | 100 | |
| 20260507123040 | 9 | 238 | 9.7 | 19.3 | 0.00 | 0.00 | 0.00 | 100 | |
| 20260507122639 | 9 | 37 | 6.4 | 11.3 | 0.00 | 0.00 | 0.00 | 100 | |
| 20260507122239 | 9 | 244 | 6.4 | 9.7 | 0.00 | 0.00 | 0.00 | 100 | |
| 20260507121839 | 9 | 282 | 6.4 | 9.7 | 0.00 | 0.00 | 0.00 | 100 | |
| 20260507121439 | 9 | 263 | 9.7 | 11.3 | 0.00 | 0.00 | 0.00 | 100 | |
| 20260507121037 | 8 | 240 | 8.0 | 11.3 | 0.00 | 0.00 | 0.00 | 100 | |
| 20260507120637 | 8 | 251 | 8.0 | 9.7 | 0.00 | 0.00 | 0.00 | 100 | |
| 20260507120237 | 9 | 251 | 6.4 | 9.7 | 0.00 | 0.00 | 0.00 | 100 | |
| 20260507115836 | 9 | 235 | 12.9 | 22.5 | 0.00 | 0.00 | 0.00 | 100 | |
| 20260507115436 | 9 | 237 | 14.5 | 25.7 | 0.00 | 0.00 | 0.00 | 100 | |
| 20260507115035 | 9 | 240 | 6.4 | 9.7 | 0.00 | 0.00 | 0.00 | 100 | |
| 20260507114635 | 9 | 270 | 4.8 | 8.0 | 0.00 | 0.00 | 0.00 | 100 | |
| 20260507114235 | 9 | 286 | 4.8 | 8.0 | 0.00 | 0.00 | 0.00 | 100 | |
| 20260507113834 | 9 | 243 | 4.8 | 8.0 | 0.00 | 0.00 | 0.00 | 100 | |
| 20260507113434 | 9 | 288 | 4.8 | 8.0 | 0.00 | 0.00 | 0.00 | 100 | |
| 20260507113033 | 10 | 295 | 3.2 | 6.4 | 0.00 | 0.00 | 0.00 | 100 | |
| 20260507112632 | 10 | 278 | 4.8 | 9.7 | 0.00 | 0.00 | 0.00 | 100 | |
| 20260507112232 | 10 | 245 | 6.4 | 9.7 | 0.00 | 0.00 | 0.00 | 100 | |
| 20260507111835 | 10 | 266 | 6.4 | 9.7 | 0.00 | 0.00 | 0.00 | 100 | |
| 20260507111432 | 10 | 232 | 8.0 | 12.9 | 0.00 | 0.00 | 0.00 | 100 | |
| 20260507111030 | 10 | 260 | 9.7 | 32.2 | 0.00 | 0.00 | 0.00 | 100 | |
| 20260507110630 | 10 | 260 | 6.4 | 9.7 | 0.00 | 0.00 | 0.00 | 100 | |
| 20260507110230 | 10 | 288 | 4.8 | 9.7 | 0.00 | 0.00 | 0.00 | 100 | |
| 20260507105829 | 10 | 288 | 6.4 | 11.3 | 0.00 | 0.00 | 0.00 | 100 | |
| 20260507105429 | 11 | 251 | 8.0 | 9.7 | 0.00 | 0.00 | 0.00 | 100 | |
| 20260507105027 | 11 | 265 | 4.8 | 8.0 | 0.00 | 0.00 | 0.00 | 100 | |
| 20260507104627 | 11 | 255 | 4.8 | 11.3 | 0.00 | 0.00 | 0.00 | 100 | |
| 20260507104227 | 11 | 310 | 6.4 | 11.3 | 0.00 | 0.00 | 0.00 | 100 | |
| 20260507103827 | 11 | 273 | 6.4 | 11.3 | 0.00 | 0.00 | 0.00 | 100 | |
| 20260507103427 | 11 | 304 | 6.4 | 12.9 | 0.00 | 0.00 | 0.00 | 100 | |
| 20260507103025 | 11 | 20 | 3.2 | 8.0 | 0.00 | 0.00 | 0.00 | 100 | |
| 20260507102625 | 11 | 261 | 6.4 | 16.1 | 0.00 | 0.00 | 0.00 | 100 | |
| 20260507102225 | 11 | 208 | 6.4 | 11.3 | 0.00 | 0.00 | 0.00 | 100 | |
| 20260507101826 | 11 | 215 | 4.8 | 8.0 | 0.00 | 0.00 | 0.00 | 100 | |
| 20260507101418 | 11 | 234 | 4.8 | 9.7 | 0.00 | 0.00 | 0.00 | 100 | |
| 20260507101016 | 11 | 251 | 8.0 | 9.7 | 0.00 | 0.00 | 0.00 | 100 | |
| 20260507100616 | 11 | 227 | 8.0 | 14.5 | 0.00 | 0.00 | 0.00 | 100 | |
| 20260507100216 | 11 | 221 | 8.0 | 11.3 | 0.00 | 0.00 | 0.00 | 100 | |
| 20260507095816 | 11 | 274 | 11.3 | 16.1 | 0.00 | 0.00 | 0.00 | 100 | |
| 20260507095415 | 11 | 188 | 9.7 | 16.1 | 0.00 | 0.00 | 0.00 | 100 | |
| 20260507095014 | 11 | 278 | 8.0 | 12.9 | 0.00 | 0.00 | 0.00 | 100 | |
| 20260507094614 | 12 | 266 | 6.4 | 9.7 | 0.00 | 0.00 | 0.00 | 100 | |
| 20260507094214 | 12 | 253 | 8.0 | 14.5 | 0.00 | 0.00 | 0.00 | 100 | |
| 20260507093814 | 12 | 260 | 3.2 | 6.4 | 0.00 | 0.00 | 0.00 | 100 | |
| 20260507093413 | 12 | 308 | 0.0 | 1.6 | 0.00 | 0.00 | 0.00 | 100 | |
| 20260507093011 | 11 | 309 | 1.6 | 3.2 | 0.00 | 0.00 | 0.00 | 100 | |
| 20260507092611 | 11 | 309 | 1.6 | 3.2 | 0.00 | 0.00 | 0.00 | 100 | |
| 20260507092211 | 12 | 270 | 4.8 | 6.4 | 0.00 | 0.00 | 0.00 | 100 | |
| 20260507091811 | 12 | 289 | 3.2 | 8.0 | 0.00 | 0.00 | 0.00 | 100 | |
| 20260507091411 | 12 | 326 | 4.8 | 8.0 | 0.00 | 0.00 | 0.00 | 100 | |
| 20260507091009 | 12 | 281 | 1.6 | 3.2 | 0.00 | 0.00 | 0.00 | 100 | |
| 20260507090607 | 11 | 289 | 4.8 | 8.0 | 0.00 | 0.00 | 0.00 | 100 | |
| 20260507090207 | 11 | 301 | 1.6 | 3.2 | 0.00 | 0.00 | 0.00 | 100 | |
| 20260507085807 | 11 | 265 | 4.8 | 8.0 | 0.00 | 0.00 | 0.00 | 100 | |
| 20260507085407 | 11 | 262 | 4.8 | 6.4 | 0.00 | 0.00 | 0.00 | 100 | |
| 20260507085005 | 11 | 294 | 4.8 | 8.0 | 0.00 | 0.00 | 0.00 | 100 | |
| 20260507084605 | 11 | 299 | 3.2 | 4.8 | 0.00 | 0.00 | 0.00 | 100 | |
| 20260507084205 | 11 | 266 | 6.4 | 9.7 | 0.00 | 0.00 | 0.00 | 100 | |
| 20260507083804 | 11 | 272 | 3.2 | 4.8 | 0.00 | 0.00 | 0.00 | 100 | |
| 20260507083404 | 10 | 276 | 4.8 | 6.4 | 0.00 | 0.00 | 0.00 | 100 | |
| 20260507083002 | 10 | 291 | 3.2 | 6.4 | 0.00 | 0.00 | 0.00 | 100 | |
| 20260507082602 | 11 | 219 | 6.4 | 11.3 | 0.00 | 0.00 | 0.00 | 100 | |
| 20260507082202 | 11 | 252 | 8.0 | 12.9 | 0.00 | 0.00 | 0.00 | 100 | |
| 20260507081802 | 11 | 241 | 8.0 | 11.3 | 0.00 | 0.00 | 0.00 | 100 | |
| 20260507081402 | 11 | 315 | 9.7 | 16.1 | 0.00 | 0.00 | 0.00 | 100 | |
| 20260507081000 | 11 | 288 | 8.0 | 11.3 | 0.00 | 0.00 | 0.00 | 100 | |
| 20260507080600 | 11 | 253 | 8.0 | 11.3 | 0.00 | 0.00 | 0.00 | 100 | |
| 20260507080200 | 11 | 30 | 8.0 | 12.9 | 0.00 | 0.00 | 0.00 | 100 | |
| 20260507075800 | 11 | 319 | 8.0 | 11.3 | 0.00 | 0.00 | 0.00 | 100 | |
| 20260507075400 | 11 | 100 | 6.4 | 14.5 | 0.00 | 0.00 | 0.00 | 100 | |
| 20260507074958 | 11 | 163 | 8.0 | 9.7 | 0.00 | 0.00 | 0.00 | 100 | |
| 20260507074558 | 11 | 148 | 9.7 | 16.1 | 0.00 | 0.00 | 0.00 | 100 | |
| 20260507074158 | 11 | 208 | 9.7 | 16.1 | 0.00 | 0.00 | 0.00 | 100 | |
| 20260507073749 | 11 | 110 | 11.3 | 17.7 | 0.00 | 0.00 | 0.00 | 100 | |
| 20260507073348 | 11 | 141 | 12.9 | 17.7 | 0.00 | 0.00 | 0.00 | 100 | |
| 20260507072946 | 11 | 202 | 9.7 | 12.9 | 0.00 | 0.00 | 0.00 | 100 | |
| 20260507072547 | 11 | 150 | 11.3 | 17.7 | 0.00 | 0.00 | 0.00 | 100 | |
| 20260507072147 | 11 | 172 | 12.9 | 19.3 | 0.00 | 0.00 | 0.00 | 100 | |
| 20260507071747 | 11 | 145 | 12.9 | 16.1 | 0.00 | 0.00 | 0.00 | 100 | |
| 20260507071346 | 11 | 172 | 11.3 | 19.3 | 0.00 | 0.00 | 0.00 | 100 | |
| 20260507070944 | 11 | 200 | 9.7 | 16.1 | 0.00 | 0.00 | 0.00 | 100 | |
| 20260507070544 | 11 | 193 | 9.7 | 14.5 | 0.00 | 0.00 | 0.00 | 100 | |
| 20260507070144 | 11 | 163 | 14.5 | 25.7 | 0.00 | 0.00 | 0.00 | 100 | |
| 20260507065823 | 11 | 178 | 11.3 | 20.9 | 0.00 | 0.00 | 0.00 | 100 | |
| 20260507065744 | 11 | 178 | 11.3 | 20.9 | 0.00 | 0.00 | 0.00 | 100 | |
| 20260507065344 | 11 | 164 | 12.9 | 20.9 | 0.00 | 0.00 | 0.00 | 100 | |
| 20260507064942 | 11 | 167 | 12.9 | 27.4 | 0.00 | 0.00 | 0.00 | 100 | |
| 20260507064542 | 11 | 183 | 12.9 | 19.3 | 0.00 | 0.00 | 0.00 | 100 | |
| 20260507064142 | 11 | 210 | 14.5 | 22.5 | 0.00 | 0.00 | 0.00 | 100 | |
| 20260507063742 | 11 | 152 | 16.1 | 22.5 | 0.00 | 0.00 | 0.00 | 100 | |
| 20260507063341 | 11 | 183 | 16.1 | 29.0 | 0.00 | 0.00 | 0.00 | 100 | |
| 20260507062940 | 11 | 176 | 17.7 | 30.6 | 0.00 | 0.00 | 0.00 | 100 | |
| 20260507062542 | 11 | 140 | 17.7 | 24.1 | 0.00 | 0.00 | 0.00 | 100 | |
| 20260507062139 | 11 | 181 | 14.5 | 24.1 | 0.00 | 0.00 | 0.00 | 100 | |
| 20260507061739 | 10 | 149 | 14.5 | 25.7 | 0.00 | 0.00 | 0.00 | 100 | |
| 20260507061340 | 10 | 176 | 11.3 | 14.5 | 0.00 | 0.00 | 0.00 | 100 | |
| 20260507060937 | 10 | 138 | 17.7 | 30.6 | 0.00 | 0.00 | 0.00 | 100 | |
| 20260507060537 | 10 | 168 | 14.5 | 20.9 | 0.00 | 0.00 | 0.00 | 100 | |
| 20260507060137 | 10 | 178 | 12.9 | 20.9 | 0.00 | 0.00 | 0.00 | 100 | |
| 20260507055737 | 10 | 177 | 12.9 | 24.1 | 0.00 | 0.00 | 0.00 | 100 | |
| 20260507055337 | 10 | 158 | 14.5 | 19.3 | 0.00 | 0.00 | 0.00 | 100 | |
| 20260507054935 | 10 | 195 | 16.1 | 24.1 | 0.00 | 0.00 | 0.00 | 100 | |
| 20260507054535 | 10 | 172 | 12.9 | 25.7 | 0.00 | 0.00 | 0.00 | 100 | |
| 20260507054135 | 10 | 177 | 16.1 | 19.3 | 0.00 | 0.00 | 0.00 | 100 | |
| 20260507053735 | 10 | 156 | 17.7 | 25.7 | 0.00 | 0.00 | 0.00 | 100 | |
| 20260507053335 | 10 | 167 | 14.5 | 22.5 | 0.00 | 0.00 | 0.00 | 100 | |
| 20260507052936 | 10 | 151 | 14.5 | 22.5 | 0.00 | 0.00 | 0.00 | 100 | |
| 20260507052533 | 10 | 159 | 12.9 | 20.9 | 0.00 | 0.00 | 0.00 | 100 | |
| 20260507052133 | 10 | 159 | 14.5 | 19.3 | 0.00 | 0.00 | 0.00 | 100 | |
| 20260507051733 | 10 | 191 | 16.1 | 25.7 | 0.00 | 0.00 | 0.00 | 100 | |
| 20260507051333 | 10 | 168 | 14.5 | 19.3 | 0.00 | 0.00 | 0.00 | 100 | |
| 20260507050931 | 10 | 181 | 16.1 | 24.1 | 0.00 | 0.00 | 0.00 | 100 | |
| 20260507050531 | 10 | 154 | 16.1 | 22.5 | 0.00 | 0.00 | 0.00 | 100 | |
| 20260507050124 | 10 | 183 | 14.5 | 22.5 | 0.00 | 0.00 | 0.00 | 100 | |
| 20260507045721 | 9 | 179 | 17.7 | 27.4 | 0.00 | 0.00 | 0.00 | 100 | |
| 20260507045321 | 9 | 167 | 12.9 | 17.7 | 0.00 | 0.00 | 0.00 | 100 | |
| 20260507044919 | 10 | 117 | 11.3 | 16.1 | 0.00 | 0.00 | 0.00 | 100 | |
| 20260507044519 | 10 | 150 | 16.1 | 32.2 | 0.00 | 0.00 | 0.00 | 100 | |
| 20260507044119 | 10 | 140 | 17.7 | 32.2 | 0.00 | 0.00 | 0.00 | 100 | |
| 20260507043719 | 10 | 128 | 17.7 | 22.5 | 0.00 | 0.00 | 0.00 | 100 | |
| 20260507043319 | 10 | 158 | 20.9 | 30.6 | 0.00 | 0.00 | 0.00 | 100 | |
| 20260507042917 | 10 | 163 | 22.5 | 38.6 | 0.00 | 0.00 | 0.00 | 100 | |
| 20260507042517 | 10 | 196 | 17.7 | 27.4 | 0.00 | 0.00 | 0.00 | 100 | |
| 20260507042117 | 10 | 151 | 17.7 | 30.6 | 0.00 | 0.00 | 0.00 | 100 | |
| 20260507041717 | 10 | 162 | 17.7 | 24.1 | 0.00 | 0.00 | 0.00 | 100 | |
| 20260507041316 | 10 | 184 | 17.7 | 29.0 | 0.00 | 0.00 | 0.00 | 100 | |
| 20260507040914 | 10 | 138 | 16.1 | 22.5 | 0.00 | 0.00 | 0.00 | 100 | |
| 20260507040514 | 10 | 123 | 17.7 | 25.7 | 0.00 | 0.00 | 0.00 | 100 | |
| 20260507040114 | 9 | 119 | 17.7 | 30.6 | 0.00 | 0.00 | 0.00 | 100 | |
| 20260507035714 | 9 | 125 | 19.3 | 24.1 | 0.00 | 0.00 | 0.00 | 100 | |
| 20260507035314 | 10 | 136 | 19.3 | 30.6 | 0.00 | 0.00 | 0.00 | 100 | |
| 20260507034912 | 10 | 165 | 20.9 | 32.2 | 0.00 | 0.00 | 0.00 | 100 | |
| 20260507034512 | 10 | 135 | 16.1 | 25.7 | 0.00 | 0.00 | 0.00 | 100 | |
| 20260507034112 | 10 | 148 | 24.1 | 38.6 | 0.00 | 0.00 | 0.00 | 100 | |
| 20260507033712 | 10 | 170 | 20.9 | 33.8 | 0.00 | 0.00 | 0.00 | 100 | |
| 20260507033311 | 10 | 173 | 24.1 | 33.8 | 0.00 | 0.00 | 0.00 | 100 | |
| 20260507032909 | 10 | 166 | 22.5 | 35.4 | 0.00 | 0.00 | 0.00 | 100 | |
| 20260507032509 | 10 | 163 | 20.9 | 30.6 | 0.00 | 0.00 | 0.00 | 100 | |
| 20260507032109 | 10 | 173 | 22.5 | 33.8 | 0.00 | 0.00 | 0.00 | 100 | |
| 20260507031709 | 10 | 180 | 25.7 | 35.4 | 0.00 | 0.00 | 0.00 | 100 | |
| 20260507031310 | 10 | 126 | 19.3 | 29.0 | 0.00 | 0.00 | 0.00 | 100 | |
| 20260507030507 | 10 | 166 | 27.4 | 40.2 | 0.00 | 0.00 | 0.00 | 100 | |
| 20260507030107 | 10 | 173 | 24.1 | 38.6 | 0.00 | 0.00 | 0.00 | 100 | |
| 20260507025707 | 10 | 168 | 29.0 | 43.5 | 0.00 | 0.00 | 0.00 | 100 | |
| 20260507025307 | 10 | 144 | 22.5 | 30.6 | 0.00 | 0.00 | 0.00 | 100 | |
| 20260507024905 | 10 | 151 | 25.7 | 38.6 | 0.00 | 0.00 | 0.00 | 100 | |
| 20260507024505 | 10 | 165 | 24.1 | 38.6 | 0.00 | 0.00 | 0.00 | 100 | |
| 20260507024105 | 10 | 173 | 20.9 | 29.0 | 0.00 | 0.00 | 0.00 | 100 | |
| 20260507023705 | 10 | 180 | 22.5 | 27.4 | 0.00 | 0.00 | 0.00 | 100 | |
| 20260507023305 | 10 | 167 | 22.5 | 35.4 | 0.00 | 0.00 | 0.00 | 100 | |
| 20260507022854 | 10 | 167 | 20.9 | 27.4 | 0.00 | 0.00 | 0.00 | 100 | |
| 20260507022454 | 10 | 164 | 17.7 | 22.5 | 0.00 | 0.00 | 0.00 | 100 | |
| 20260507022054 | 10 | 209 | 20.9 | 33.8 | 0.00 | 0.00 | 0.00 | 100 | |
| 20260507021653 | 10 | 177 | 20.9 | 32.2 | 0.00 | 0.00 | 0.00 | 100 | |
| 20260507021253 | 10 | 173 | 24.1 | 38.6 | 0.00 | 0.00 | 0.00 | 100 | |
| 20260507020851 | 10 | 183 | 22.5 | 41.8 | 0.00 | 0.00 | 0.00 | 100 | |
| 20260507020451 | 10 | 134 | 20.9 | 32.2 | 0.00 | 0.00 | 0.00 | 100 | |
| 20260507020052 | 10 | 174 | 24.1 | 35.4 | 0.00 | 0.00 | 0.00 | 100 | |
| 20260507015651 | 10 | 165 | 22.5 | 35.4 | 0.00 | 0.00 | 0.00 | 100 | |
| 20260507015251 | 10 | 172 | 22.5 | 49.9 | 0.00 | 0.00 | 0.00 | 100 | |
| 20260507014849 | 10 | 191 | 20.9 | 37.0 | 0.00 | 0.00 | 0.00 | 100 | |
| 20260507014449 | 10 | 166 | 24.1 | 33.8 | 0.00 | 0.00 | 0.00 | 100 | |
| 20260507014049 | 10 | 176 | 22.5 | 46.7 | 0.00 | 0.00 | 0.00 | 100 | |
| 20260507013649 | 10 | 166 | 22.5 | 35.4 | 0.00 | 0.00 | 0.00 | 100 | |
| 20260507013248 | 10 | 188 | 22.5 | 38.6 | 0.00 | 0.00 | 0.00 | 100 | |
| 20260507012847 | 10 | 165 | 24.1 | 43.5 | 0.00 | 0.00 | 0.00 | 100 | |
| 20260507012447 | 10 | 174 | 20.9 | 33.8 | 0.00 | 0.00 | 0.00 | 100 | |
| 20260507012047 | 10 | 184 | 25.7 | 33.8 | 0.00 | 0.00 | 0.00 | 100 | |
| 20260507011647 | 10 | 163 | 22.5 | 32.2 | 0.00 | 0.00 | 0.00 | 100 | |
| 20260507011246 | 10 | 174 | 27.4 | 40.2 | 0.00 | 0.00 | 0.00 | 100 | |
| 20260507010844 | 10 | 153 | 22.5 | 30.6 | 0.00 | 0.00 | 0.00 | 100 | |
| 20260507010444 | 10 | 151 | 24.1 | 38.6 | 0.00 | 0.00 | 0.00 | 100 | |
| 20260507010044 | 10 | 173 | 19.3 | 27.4 | 0.00 | 0.00 | 0.00 | 100 | |
| 20260507005644 | 11 | 169 | 22.5 | 29.0 | 0.00 | 0.00 | 0.00 | 100 | |
| 20260507005244 | 11 | 180 | 25.7 | 35.4 | 0.00 | 0.00 | 0.00 | 100 | |
| 20260507004842 | 10 | 156 | 22.5 | 38.6 | 0.00 | 0.00 | 0.00 | 100 | |
| 20260507004440 | 11 | 177 | 20.9 | 27.4 | 0.00 | 0.00 | 0.00 | 100 | |
| 20260507004040 | 11 | 167 | 20.9 | 41.8 | 0.00 | 0.00 | 0.00 | 100 | |
| 20260507003640 | 11 | 158 | 19.3 | 30.6 | 0.00 | 0.00 | 0.00 | 100 | |
| 20260507003240 | 11 | 166 | 16.1 | 27.4 | 0.00 | 0.00 | 0.00 | 100 | |
| 20260507002838 | 11 | 169 | 17.7 | 25.7 | 0.00 | 0.00 | 0.00 | 100 | |
| 20260507002438 | 11 | 157 | 19.3 | 25.7 | 0.00 | 0.00 | 0.00 | 100 | |
| 20260507002037 | 11 | 180 | 22.5 | 33.8 | 0.00 | 0.00 | 0.00 | 100 | |
| 20260507001637 | 11 | 154 | 17.7 | 32.2 | 0.00 | 0.00 | 0.00 | 100 | |
| 20260507001237 | 11 | 156 | 20.9 | 30.6 | 0.00 | 0.00 | 0.00 | 100 | |
| 20260507000835 | 11 | 170 | 19.3 | 29.0 | 0.00 | 0.00 | 0.00 | 100 | |
| 20260507000435 | 11 | 178 | 20.9 | 33.8 | 0.00 | 0.00 | 0.00 | 100 | |
| 20260507000035 | 11 | 157 | 19.3 | 30.6 | 0.00 | 0.00 | 0.00 | 100 | |
| 20260506235636 | 11 | 183 | 24.1 | 41.8 | 0.00 | 0.00 | 0.00 | 100 | |
| 20260506235228 | 11 | 188 | 24.1 | 32.2 | 0.00 | 0.00 | 0.00 | 100 | |
| 20260506234829 | 11 | 180 | 27.4 | 41.8 | 0.00 | 0.00 | 0.00 | 100 | |
| 20260506234426 | 11 | 155 | 19.3 | 35.4 | 0.00 | 0.00 | 0.00 | 100 | |
| 20260506234026 | 11 | 154 | 20.9 | 29.0 | 0.00 | 0.00 | 0.00 | 100 | |
| 20260506233626 | 11 | 133 | 20.9 | 32.2 | 0.00 | 0.00 | 0.00 | 100 | |
| 20260506233226 | 11 | 163 | 22.5 | 38.6 | 0.00 | 0.00 | 0.00 | 100 | |
| 20260506232824 | 11 | 173 | 25.7 | 41.8 | 0.00 | 0.00 | 0.00 | 100 | |
| 20260506232424 | 11 | 181 | 27.4 | 40.2 | 0.00 | 0.00 | 0.00 | 100 | |
| 20260506232024 | 11 | 184 | 25.7 | 41.8 | 0.00 | 0.00 | 0.00 | 100 | |
| 20260506231623 | 11 | 187 | 25.7 | 45.1 | 0.00 | 0.00 | 0.00 | 100 | |
| 20260506231223 | 11 | 180 | 27.4 | 38.6 | 0.00 | 0.00 | 0.00 | 100 | |
| 20260506230821 | 11 | 180 | 27.4 | 41.8 | 0.00 | 0.00 | 0.00 | 100 | |
| 20260506230422 | 11 | 187 | 27.4 | 43.5 | 0.00 | 0.00 | 0.00 | 100 | |
| 20260506230022 | 12 | 171 | 24.1 | 30.6 | 0.00 | 0.00 | 0.00 | 100 | |
| 20260506225621 | 12 | 194 | 29.0 | 43.5 | 0.00 | 0.00 | 0.00 | 100 | |
| 20260506225221 | 12 | 176 | 25.7 | 33.8 | 0.00 | 0.00 | 0.00 | 100 | |
| 20260506224819 | 12 | 189 | 29.0 | 43.5 | 0.00 | 0.00 | 0.00 | 100 | |
| 20260506224419 | 12 | 180 | 27.4 | 43.5 | 0.00 | 0.00 | 0.00 | 100 | |
| 20260506224019 | 12 | 170 | 25.7 | 48.3 | 0.00 | 0.00 | 0.00 | 100 | |
| 20260506223619 | 12 | 194 | 24.1 | 37.0 | 0.00 | 0.00 | 0.00 | 100 | |
| 20260506223218 | 12 | 192 | 27.4 | 35.4 | 0.00 | 0.00 | 0.00 | 100 | |
| 20260506222817 | 12 | 196 | 24.1 | 48.3 | 0.00 | 0.00 | 0.00 | 100 | |
| 20260506222417 | 12 | 182 | 25.7 | 38.6 | 0.00 | 0.00 | 0.00 | 100 | |
| 20260506222017 | 12 | 190 | 22.5 | 35.4 | 0.00 | 0.00 | 0.00 | 100 | |
| 20260506221617 | 12 | 195 | 20.9 | 30.6 | 0.00 | 0.00 | 0.00 | 100 | |
| 20260506221216 | 12 | 180 | 20.9 | 29.0 | 0.00 | 0.00 | 0.00 | 100 | |
| 20260506220814 | 12 | 174 | 19.3 | 30.6 | 0.00 | 0.00 | 0.00 | 100 | |
| 20260506220414 | 12 | 180 | 16.1 | 20.9 | 0.00 | 0.00 | 0.00 | 100 | |
| 20260506220014 | 12 | 176 | 19.3 | 27.4 | 0.00 | 0.00 | 0.00 | 100 | |
| 20260506215614 | 12 | 178 | 19.3 | 30.6 | 0.00 | 0.00 | 0.00 | 100 | |
| 20260506215214 | 12 | 159 | 20.9 | 32.2 | 0.00 | 0.00 | 0.00 | 100 | |
| 20260506214812 | 12 | 184 | 20.9 | 33.8 | 0.00 | 0.00 | 0.00 | 100 | |
| 20260506214412 | 12 | 158 | 22.5 | 35.4 | 0.00 | 0.00 | 0.00 | 100 | |
| 20260506214012 | 12 | 175 | 22.5 | 38.6 | 0.00 | 0.00 | 0.00 | 100 | |
| 20260506213612 | 12 | 197 | 24.1 | 33.8 | 0.00 | 0.00 | 0.00 | 100 | |
| 20260506213212 | 12 | 174 | 17.7 | 25.7 | 0.00 | 0.00 | 0.00 | 100 | |
| 20260506212810 | 12 | 178 | 17.7 | 24.1 | 0.00 | 0.00 | 0.00 | 100 | |
| 20260506212410 | 12 | 203 | 12.9 | 20.9 | 0.00 | 0.00 | 0.00 | 100 | |
| 20260506212010 | 12 | 195 | 19.3 | 30.6 | 0.00 | 0.00 | 0.00 | 100 | |
| 20260506211600 | 12 | 195 | 22.5 | 29.0 | 0.00 | 0.00 | 0.00 | 100 | |
| 20260506211201 | 12 | 188 | 25.7 | 37.0 | 0.00 | 0.00 | 0.00 | 100 | |
| 20260506210759 | 13 | 178 | 22.5 | 37.0 | 0.00 | 0.00 | 0.00 | 100 | |
| 20260506210359 | 13 | 177 | 20.9 | 38.6 | 0.00 | 0.00 | 0.00 | 100 | |
| 20260506205959 | 13 | 193 | 25.7 | 45.1 | 0.00 | 0.00 | 0.00 | 100 | |
| 20260506205558 | 13 | 184 | 27.4 | 43.5 | 0.00 | 0.00 | 0.00 | 100 | |
| 20260506205158 | 13 | 191 | 25.7 | 43.5 | 0.00 | 0.00 | 0.00 | 100 | |
| 20260506204756 | 13 | 182 | 22.5 | 35.4 | 0.00 | 0.00 | 0.00 | 100 | |
| 20260506204356 | 13 | 187 | 25.7 | 37.0 | 0.00 | 0.00 | 0.00 | 100 | |
| 20260506203956 | 13 | 181 | 25.7 | 41.8 | 0.00 | 0.00 | 0.00 | 100 | |
| 20260506203554 | 13 | 180 | 25.7 | 43.5 | 0.00 | 0.00 | 0.00 | 100 | |
| 20260506203154 | 13 | 199 | 29.0 | 37.0 | 0.00 | 0.00 | 0.00 | 100 | |
| 20260506202752 | 12 | 168 | 24.1 | 35.4 | 0.00 | 0.00 | 0.00 | 100 | |
| 20260506202353 | 13 | 180 | 20.9 | 33.8 | 0.00 | 0.00 | 0.00 | 100 | |
| 20260506201952 | 13 | 187 | 19.3 | 32.2 | 0.00 | 0.00 | 0.00 | 100 | |
| 20260506201552 | 13 | 188 | 19.3 | 33.8 | 0.00 | 0.00 | 0.00 | 100 | |
| 20260506201152 | 13 | 194 | 20.9 | 30.6 | 0.00 | 0.00 | 0.00 | 100 | |
| 20260506200750 | 13 | 183 | 16.1 | 24.1 | 0.00 | 0.00 | 0.00 | 100 | |
| 20260506200349 | 13 | 193 | 16.1 | 25.7 | 0.00 | 0.00 | 0.00 | 100 | |
| 20260506195949 | 13 | 206 | 17.7 | 22.5 | 0.00 | 0.00 | 0.00 | 100 | |
| 20260506195549 | 13 | 195 | 17.7 | 24.1 | 0.00 | 0.00 | 0.00 | 100 | |
| 20260506195149 | 13 | 197 | 17.7 | 27.4 | 0.00 | 0.00 | 0.00 | 100 | |
| 20260506194750 | 13 | 196 | 17.7 | 24.1 | 0.00 | 0.00 | 0.00 | 100 | |
| 20260506194347 | 13 | 187 | 17.7 | 25.7 | 0.00 | 0.00 | 0.00 | 100 | |
| 20260506193947 | 13 | 205 | 16.1 | 24.1 | 0.00 | 0.00 | 0.00 | 100 | |
| 20260506193547 | 13 | 196 | 16.1 | 22.5 | 0.00 | 0.00 | 0.00 | 100 | |
| 20260506193147 | 13 | 194 | 17.7 | 38.6 | 0.00 | 0.00 | 0.00 | 100 | |
| 20260506192745 | 13 | 206 | 17.7 | 25.7 | 0.00 | 0.00 | 0.00 | 100 | |
| 20260506192344 | 13 | 199 | 16.1 | 25.7 | 0.00 | 0.00 | 0.00 | 100 | |
| 20260506191944 | 13 | 198 | 17.7 | 24.1 | 0.00 | 0.00 | 0.00 | 100 | |
| 20260506191544 | 13 | 198 | 14.5 | 29.0 | 0.00 | 0.00 | 0.00 | 100 | |
| 20260506191144 | 13 | 197 | 16.1 | 22.5 | 0.00 | 0.00 | 0.00 | 100 | |
| 20260506190745 | 13 | 196 | 16.1 | 25.7 | 0.00 | 0.00 | 0.00 | 100 | |
| 20260506190342 | 13 | 196 | 17.7 | 29.0 | 0.00 | 0.00 | 0.00 | 100 | |
| 20260506185942 | 13 | 194 | 14.5 | 22.5 | 0.00 | 0.00 | 0.00 | 100 | |
| 20260506185541 | 13 | 198 | 16.1 | 24.1 | 0.00 | 0.00 | 0.00 | 100 | |
| 20260506185141 | 13 | 191 | 12.9 | 20.9 | 0.00 | 0.00 | 0.00 | 100 | |
| 20260506184739 | 13 | 205 | 11.3 | 19.3 | 0.00 | 0.00 | 0.00 | 100 | |
| 20260506184339 | 13 | 203 | 12.9 | 20.9 | 0.00 | 0.00 | 0.00 | 100 | |
| 20260506183931 | 13 | 204 | 12.9 | 20.9 | 0.00 | 0.00 | 0.00 | 100 | |
| 20260506183531 | 13 | 194 | 16.1 | 22.5 | 0.00 | 0.00 | 0.00 | 100 | |
| 20260506183131 | 13 | 199 | 16.1 | 22.5 | 0.00 | 0.00 | 0.00 | 100 | |
| 20260506182729 | 13 | 196 | 16.1 | 20.9 | 0.00 | 0.00 | 0.00 | 100 | |
| 20260506182329 | 13 | 206 | 14.5 | 25.7 | 0.00 | 0.00 | 0.00 | 100 | |
| 20260506181928 | 13 | 211 | 16.1 | 22.5 | 0.00 | 0.00 | 0.00 | 100 | |
| 20260506181529 | 13 | 202 | 14.5 | 19.3 | 0.00 | 0.00 | 0.00 | 100 | |
| 20260506181129 | 13 | 194 | 14.5 | 24.1 | 0.00 | 0.00 | 0.00 | 100 | |
| 20260506180727 | 13 | 191 | 11.3 | 17.7 | 0.00 | 0.00 | 0.00 | 100 | |
| 20260506180327 | 14 | 203 | 16.1 | 25.7 | 0.00 | 0.00 | 0.00 | 100 | |
| 20260506175927 | 14 | 199 | 16.1 | 22.5 | 0.00 | 0.00 | 0.00 | 100 | |
| 20260506175526 | 14 | 203 | 14.5 | 22.5 | 0.00 | 0.00 | 0.00 | 100 | |
| 20260506175126 | 14 | 209 | 16.1 | 25.7 | 0.00 | 0.00 | 0.00 | 100 | |
| 20260506174724 | 14 | 201 | 16.1 | 20.9 | 0.00 | 0.00 | 0.00 | 100 | |
| 20260506174325 | 14 | 179 | 12.9 | 22.5 | 0.00 | 0.00 | 0.00 | 100 | |
| 20260506173924 | 14 | 199 | 14.5 | 22.5 | 0.00 | 0.00 | 0.00 | 100 | |
| 20260506173524 | 14 | 193 | 17.7 | 27.4 | 0.00 | 0.00 | 0.00 | 100 | |
| 20260506173124 | 14 | 203 | 16.1 | 25.7 | 0.00 | 0.00 | 0.00 | 100 | |
| 20260506172722 | 14 | 204 | 14.5 | 27.4 | 0.00 | 0.00 | 0.00 | 100 | |
| 20260506172322 | 14 | 192 | 17.7 | 29.0 | 0.00 | 0.00 | 0.00 | 100 | |
| 20260506171922 | 14 | 187 | 12.9 | 20.9 | 0.00 | 0.00 | 0.00 | 100 | |
| 20260506171522 | 14 | 196 | 16.1 | 35.4 | 0.00 | 0.00 | 0.00 | 100 | |
| 20260506171122 | 14 | 177 | 19.3 | 29.0 | 0.00 | 0.00 | 0.00 | 100 | |
| 20260506170720 | 14 | 195 | 16.1 | 25.7 | 0.00 | 0.00 | 0.00 | 100 | |
| 20260506170320 | 14 | 202 | 14.5 | 20.9 | 0.00 | 0.00 | 0.00 | 100 | |
| 20260506165920 | 15 | 208 | 14.5 | 29.0 | 0.00 | 0.00 | 0.00 | 100 | |
| 20260506165521 | 15 | 190 | 14.5 | 25.7 | 0.00 | 0.00 | 0.00 | 100 | |
| 20260506165121 | 15 | 202 | 14.5 | 20.9 | 0.00 | 0.00 | 0.00 | 100 | |
| 20260506164718 | 15 | 181 | 16.1 | 29.0 | 0.00 | 0.00 | 0.00 | 100 | |
| 20260506164319 | 15 | 196 | 17.7 | 25.7 | 0.00 | 0.00 | 0.00 | 100 | |
| 20260506163919 | 15 | 197 | 16.1 | 24.1 | 0.00 | 0.00 | 0.00 | 100 | |
| 20260506163519 | 15 | 200 | 17.7 | 33.8 | 0.00 | 0.00 | 0.00 | 100 | |
| 20260506163119 | 15 | 206 | 17.7 | 30.6 | 0.00 | 0.00 | 0.00 | 100 | |
| 20260506162717 | 15 | 206 | 20.9 | 32.2 | 0.00 | 0.00 | 0.00 | 100 | |
| 20260506162315 | 15 | 213 | 16.1 | 25.7 | 0.00 | 0.00 | 0.00 | 100 | |
| 20260506161915 | 15 | 205 | 16.1 | 25.7 | 0.00 | 0.00 | 0.00 | 100 | |
| 20260506161515 | 15 | 209 | 16.1 | 29.0 | 0.00 | 0.00 | 0.00 | 100 | |
| 20260506161115 | 15 | 205 | 19.3 | 29.0 | 0.00 | 0.00 | 0.00 | 100 | |
| 20260506160704 | 15 | 202 | 17.7 | 25.7 | 0.00 | 0.00 | 0.00 | 100 | |
| 20260506160304 | 15 | 212 | 16.1 | 35.4 | 0.00 | 0.00 | 0.00 | 100 | |
| 20260506155904 | 15 | 198 | 11.3 | 16.1 | 0.00 | 0.00 | 0.00 | 100 | |
| 20260506155504 | 15 | 206 | 12.9 | 20.9 | 0.00 | 0.00 | 0.00 | 100 | |
| 20260506155104 | 15 | 209 | 14.5 | 20.9 | 0.00 | 0.00 | 0.00 | 100 | |
| 20260506154702 | 15 | 206 | 16.1 | 29.0 | 0.00 | 0.00 | 0.00 | 100 | |
| 20260506154302 | 16 | 203 | 16.1 | 22.5 | 0.00 | 0.00 | 0.00 | 100 | |
| 20260506153901 | 16 | 210 | 12.9 | 20.9 | 0.00 | 0.00 | 0.00 | 100 | |
| 20260506153501 | 16 | 231 | 8.0 | 16.1 | 0.00 | 0.00 | 0.00 | 100 | |
| 20260506153101 | 16 | 224 | 9.7 | 14.5 | 0.00 | 0.00 | 0.00 | 100 | |
| 20260506152659 | 16 | 211 | 12.9 | 24.1 | 0.00 | 0.00 | 0.00 | 100 | |
| 20260506152259 | 16 | 217 | 14.5 | 29.0 | 0.00 | 0.00 | 0.00 | 100 | |
| 20260506151859 | 16 | 218 | 12.9 | 24.1 | 0.00 | 0.00 | 0.00 | 100 | |
| 20260506151459 | 16 | 231 | 12.9 | 19.3 | 0.00 | 0.00 | 0.00 | 100 | |
| 20260506151059 | 16 | 219 | 12.9 | 19.3 | 0.00 | 0.00 | 0.00 | 100 | |
| 20260506150657 | 16 | 209 | 16.1 | 29.0 | 0.00 | 0.00 | 0.00 | 100 | |
| 20260506150303 | 16 | 208 | 19.3 | 29.0 | 0.00 | 0.00 | 0.00 | 100 | |
| 20260506145857 | 16 | 219 | 17.7 | 29.0 | 0.00 | 0.00 | 0.00 | 100 | |
| 20260506145457 | 17 | 225 | 19.3 | 30.6 | 0.00 | 0.00 | 0.00 | 100 | |
| 20260506145057 | 17 | 222 | 16.1 | 25.7 | 0.00 | 0.00 | 0.00 | 100 | |
| 20260506144655 | 17 | 214 | 12.9 | 19.3 | 0.00 | 0.00 | 0.00 | 100 | |
| 20260506144255 | 17 | 214 | 16.1 | 32.2 | 0.00 | 0.00 | 0.00 | 100 | |
| 20260506143855 | 17 | 223 | 12.9 | 20.9 | 0.00 | 0.00 | 0.00 | 100 | |
| 20260506143455 | 17 | 222 | 14.5 | 22.5 | 0.00 | 0.00 | 0.00 | 100 | |
| 20260506143055 | 17 | 218 | 19.3 | 27.4 | 0.00 | 0.00 | 0.00 | 100 | |
| 20260506142654 | 17 | 222 | 12.9 | 20.9 | 0.00 | 0.00 | 0.00 | 100 | |
| 20260506142254 | 17 | 224 | 12.9 | 24.1 | 0.00 | 0.00 | 0.00 | 100 | |
| 20260506141854 | 17 | 221 | 12.9 | 24.1 | 0.00 | 0.00 | 0.00 | 100 | |
| 20260506141454 | 17 | 225 | 14.5 | 25.7 | 0.00 | 0.00 | 0.00 | 100 | |
| 20260506141054 | 18 | 222 | 19.3 | 32.2 | 0.00 | 0.00 | 0.00 | 100 | |
| 20260506140652 | 18 | 226 | 17.7 | 27.4 | 0.00 | 0.00 | 0.00 | 100 | |
| 20260506140251 | 18 | 238 | 14.5 | 24.1 | 0.00 | 0.00 | 0.00 | 100 | |
| 20260506135851 | 18 | 225 | 11.3 | 19.3 | 0.00 | 0.00 | 0.00 | 100 | |
| 20260506135526 | 18 | 240 | 14.5 | 22.5 | 0.00 | 0.00 | 0.00 | 100 | |
| 20260506135452 | 18 | 240 | 14.5 | 22.5 | 0.00 | 0.00 | 0.00 | 100 |